createdAt,value
2018-03-07T00:02:04.248Z,167.80
2018-03-07T00:04:32.814Z,181.18
2018-03-07T00:07:01.312Z,166.68
2018-03-07T00:09:29.775Z,180.98
2018-03-07T00:11:58.256Z,164.20
2018-03-07T00:14:26.711Z,155.68
2018-03-07T00:16:55.226Z,161.48
2018-03-07T00:19:23.776Z,180.70
2018-03-07T00:21:52.292Z,163.00
2018-03-07T00:24:21.220Z,168.62
2018-03-07T00:26:49.736Z,163.50
2018-03-07T00:29:18.216Z,160.10
2018-03-07T00:31:46.824Z,173.57
2018-03-07T00:34:15.413Z,167.98
2018-03-07T00:36:43.905Z,152.45
2018-03-07T00:39:12.931Z,163.10
2018-03-07T00:41:41.418Z,175.62
2018-03-07T00:44:10.044Z,164.68
2018-03-07T00:46:38.578Z,155.37
2018-03-07T00:49:07.254Z,180.55
2018-03-07T00:51:36.355Z,176.10
2018-03-07T00:54:04.886Z,171.25
2018-03-07T00:56:33.324Z,183.55
2018-03-07T00:59:01.788Z,173.00
2018-03-07T01:01:30.290Z,161.70
2018-03-07T01:03:58.773Z,158.82
2018-03-07T01:06:27.273Z,171.27
2018-03-07T01:08:56.196Z,172.52
2018-03-07T01:11:24.725Z,165.32
2018-03-07T01:13:53.228Z,156.18
2018-03-07T01:16:22.893Z,170.57
2018-03-07T01:18:51.316Z,164.13
2018-03-07T01:21:19.769Z,180.40
2018-03-07T01:23:48.406Z,177.00
2018-03-07T01:26:17.022Z,172.82
2018-03-07T01:28:45.552Z,182.48
2018-03-07T01:31:14.088Z,172.48
2018-03-07T01:33:42.672Z,191.40
2018-03-07T01:36:11.649Z,166.98
2018-03-07T01:38:40.189Z,174.82
2018-03-07T01:41:08.755Z,177.10
2018-03-07T01:43:37.278Z,185.45
2018-03-07T01:46:05.837Z,183.57
2018-03-07T01:48:34.304Z,173.38
2018-03-07T01:51:02.769Z,167.68
2018-03-07T01:53:31.232Z,163.68
2018-03-07T01:55:59.688Z,204.60
2018-03-07T01:58:28.162Z,185.48
2018-03-07T02:00:56.769Z,184.90
2018-03-07T02:03:25.252Z,172.55
2018-03-07T02:05:53.715Z,176.45
2018-03-07T02:08:22.399Z,171.55
2018-03-07T02:10:50.850Z,174.82
2018-03-07T02:13:19.305Z,192.52
2018-03-07T02:15:48.325Z,191.12
2018-03-07T02:18:17.056Z,188.25
2018-03-07T02:20:45.541Z,188.15
2018-03-07T02:23:14.056Z,172.32
2018-03-07T02:25:43.680Z,202.95
2018-03-07T02:28:12.199Z,177.90
2018-03-07T02:30:40.740Z,183.15
2018-03-07T02:33:09.262Z,178.90
2018-03-07T02:35:37.789Z,182.88
2018-03-07T02:38:06.334Z,176.02
2018-03-07T02:40:34.816Z,170.93
2018-03-07T02:43:03.289Z,196.40
2018-03-07T02:45:32.605Z,187.62
2018-03-07T02:48:01.121Z,197.93
2018-03-07T02:50:29.561Z,187.45
2018-03-07T02:52:58.126Z,194.40
2018-03-07T02:55:26.618Z,204.50
2018-03-07T02:57:55.093Z,188.90
2018-03-07T03:00:23.645Z,196.75
2018-03-07T03:02:52.153Z,202.95
2018-03-07T03:05:20.645Z,202.18
2018-03-07T03:07:49.332Z,201.55
2018-03-07T03:10:17.913Z,211.15
2018-03-07T03:12:46.389Z,198.60
2018-03-07T03:15:15.620Z,180.27
2018-03-07T03:17:44.143Z,206.55
2018-03-07T03:20:12.654Z,200.00
2018-03-07T03:22:41.252Z,192.45
2018-03-07T03:25:09.746Z,208.50
2018-03-07T03:27:38.537Z,209.80
2018-03-07T03:30:07.150Z,197.87
2018-03-07T03:32:35.605Z,219.10
2018-03-07T03:35:04.257Z,202.70
2018-03-07T03:37:32.837Z,208.25
2018-03-07T03:40:01.362Z,202.87
2018-03-07T03:42:29.803Z,199.18
2018-03-07T03:44:58.998Z,241.40
2018-03-07T03:47:27.505Z,215.45
2018-03-07T03:49:55.964Z,235.65
2018-03-07T03:52:24.472Z,201.48
2018-03-07T03:54:53.089Z,213.02
2018-03-07T03:57:21.595Z,220.05
2018-03-07T03:59:50.860Z,220.90
2018-03-07T04:02:20.158Z,205.68
2018-03-07T04:04:48.616Z,209.82
2018-03-07T04:07:18.306Z,216.45
2018-03-07T04:09:46.783Z,205.32
2018-03-07T04:12:15.271Z,197.62
2018-03-07T04:14:44.431Z,206.82
2018-03-07T04:17:13.232Z,223.07
2018-03-07T04:19:41.816Z,226.95
2018-03-07T04:22:10.513Z,206.18
2018-03-07T04:24:39.058Z,215.45
2018-03-07T04:27:07.612Z,216.32
2018-03-07T04:29:36.400Z,202.38
2018-03-07T04:32:04.858Z,212.05
2018-03-07T04:34:33.418Z,204.55
2018-03-07T04:37:01.919Z,204.80
2018-03-07T04:39:30.334Z,215.32
2018-03-07T04:41:58.772Z,208.00
2018-03-07T04:44:27.292Z,219.43
2018-03-07T04:46:55.997Z,216.45
2018-03-07T04:49:24.463Z,224.15
2018-03-07T04:51:53.449Z,231.90
2018-03-07T04:54:22.055Z,225.50
2018-03-07T04:56:50.551Z,218.43
2018-03-07T04:59:19.367Z,212.00
2018-03-07T05:01:47.925Z,237.63
2018-03-07T05:04:16.742Z,208.00
2018-03-07T05:06:45.353Z,216.85
2018-03-07T05:09:13.917Z,221.32
2018-03-07T05:11:43.366Z,221.65
2018-03-07T05:14:12.189Z,220.05
2018-03-07T05:16:40.739Z,236.02
2018-03-07T05:19:09.424Z,222.63
2018-03-07T05:21:38.374Z,238.87
2018-03-07T05:24:06.999Z,238.27
2018-03-07T05:26:36.562Z,210.13
2018-03-07T05:29:05.106Z,249.37
2018-03-07T05:31:33.562Z,221.85
2018-03-07T05:34:02.102Z,230.68
2018-03-07T05:36:30.576Z,230.55
2018-03-07T05:38:59.057Z,215.68
2018-03-07T05:41:27.624Z,240.62
2018-03-07T05:43:56.142Z,272.88
2018-03-07T05:46:24.665Z,245.23
2018-03-07T05:48:53.187Z,239.95
2018-03-07T05:51:21.861Z,256.35
2018-03-07T05:53:50.321Z,254.60
2018-03-07T05:56:18.978Z,271.87
2018-03-07T05:58:47.589Z,259.23
2018-03-07T06:01:16.170Z,267.08
2018-03-07T06:03:44.695Z,253.48
2018-03-07T06:06:13.410Z,239.50
2018-03-07T06:08:42.007Z,255.20
2018-03-07T06:11:10.490Z,223.43
2018-03-07T06:13:39.936Z,230.00
2018-03-07T06:16:08.542Z,250.10
2018-03-07T06:18:37.125Z,244.13
2018-03-07T06:21:05.732Z,232.45
2018-03-07T06:23:34.445Z,237.32
2018-03-07T06:26:03.844Z,254.32
2018-03-07T06:28:33.294Z,237.50
2018-03-07T06:31:01.833Z,228.37
2018-03-07T06:33:30.283Z,222.98
2018-03-07T06:35:58.769Z,235.63
2018-03-07T06:38:34.694Z,235.15
2018-03-07T06:41:03.202Z,234.52
2018-03-07T06:43:31.679Z,211.15
2018-03-07T06:46:00.123Z,231.00
2018-03-07T06:48:28.617Z,233.80
2018-03-07T06:50:57.106Z,207.68
2018-03-07T06:53:25.565Z,218.80
2018-03-07T06:55:54.185Z,203.62
2018-03-07T06:58:22.667Z,235.65
2018-03-07T07:00:51.086Z,224.77
2018-03-07T07:03:19.631Z,224.90
2018-03-07T07:05:48.209Z,207.70
2018-03-07T07:08:16.691Z,223.77
2018-03-07T07:10:45.285Z,220.32
2018-03-07T07:13:13.866Z,219.43
2018-03-07T07:15:42.455Z,217.82
2018-03-07T07:18:11.135Z,213.93
2018-03-07T07:20:39.621Z,228.93
2018-03-07T07:23:08.177Z,239.63
2018-03-07T07:25:37.622Z,230.75
2018-03-07T07:28:06.272Z,210.82
2018-03-07T07:30:34.810Z,224.75
2018-03-07T07:33:04.265Z,209.37
2018-03-07T07:35:32.744Z,206.77
2018-03-07T07:38:01.221Z,220.02
2018-03-07T07:40:29.819Z,218.30
2018-03-07T07:42:58.273Z,225.85
2018-03-07T07:45:26.742Z,218.80
2018-03-07T07:47:55.231Z,230.65
2018-03-07T07:50:23.751Z,235.38
2018-03-07T07:52:52.265Z,222.43
2018-03-07T07:55:21.510Z,212.80
2018-03-07T07:57:50.114Z,207.32
2018-03-07T08:00:18.626Z,207.45
2018-03-07T08:02:49.189Z,208.15
2018-03-07T08:05:17.726Z,206.10
2018-03-07T08:07:46.216Z,206.73
2018-03-07T08:10:14.859Z,209.30
2018-03-07T08:12:43.309Z,224.68
2018-03-07T08:15:11.965Z,219.50
2018-03-07T08:17:40.604Z,205.43
2018-03-07T08:20:09.201Z,214.30
2018-03-07T08:22:37.830Z,205.02
2018-03-07T08:25:10.146Z,203.90
2018-03-07T08:27:38.759Z,212.77
2018-03-07T08:30:07.461Z,206.35
2018-03-07T08:32:36.049Z,217.70
2018-03-07T08:35:04.565Z,221.77
2018-03-07T08:37:33.151Z,194.68
2018-03-07T08:40:02.545Z,203.98
2018-03-07T08:42:31.033Z,229.27
2018-03-07T08:44:59.491Z,238.65
2018-03-07T08:47:28.115Z,238.75
2018-03-07T08:49:56.688Z,220.45
2018-03-07T08:52:25.144Z,234.52
2018-03-07T08:54:54.165Z,217.57
2018-03-07T08:57:22.648Z,232.60
2018-03-07T08:59:51.099Z,217.70
2018-03-07T09:02:19.619Z,230.73
2018-03-07T09:04:48.106Z,221.90
2018-03-07T09:07:16.584Z,208.07
2018-03-07T09:09:45.268Z,223.18
2018-03-07T09:12:13.776Z,208.00
2018-03-07T09:14:43.283Z,196.32
2018-03-07T09:17:12.101Z,195.15
2018-03-07T09:19:40.983Z,198.60
2018-03-07T09:22:09.683Z,198.93
2018-03-07T09:24:38.301Z,193.73
2018-03-07T09:27:06.977Z,199.07
2018-03-07T09:29:35.569Z,206.50
2018-03-07T09:32:05.402Z,215.77
2018-03-07T09:34:33.960Z,207.57
2018-03-07T09:37:02.412Z,196.68
2018-03-07T09:39:32.144Z,205.35
2018-03-07T09:42:00.602Z,206.65
2018-03-07T09:44:29.124Z,190.98
2018-03-07T09:46:57.735Z,226.68
2018-03-07T09:49:26.257Z,218.20
2018-03-07T09:51:54.731Z,220.95
2018-03-07T09:54:23.755Z,205.55
2018-03-07T09:56:52.235Z,210.77
2018-03-07T09:59:20.844Z,208.18
2018-03-07T10:01:49.556Z,201.43
2018-03-07T10:04:18.143Z,195.07
2018-03-07T10:06:46.669Z,191.18
2018-03-07T10:09:15.298Z,203.93
2018-03-07T10:11:43.784Z,203.00
2018-03-07T10:14:12.313Z,203.65
2018-03-07T10:16:41.618Z,194.75
2018-03-07T10:19:10.199Z,193.25
2018-03-07T10:21:38.784Z,184.23
2018-03-07T10:24:08.593Z,186.73
2018-03-07T10:26:37.192Z,201.57
2018-03-07T10:29:05.613Z,169.80
2018-03-07T10:31:35.897Z,168.10
2018-03-07T10:34:04.364Z,178.20
2018-03-07T10:36:33.954Z,170.90
2018-03-07T10:39:02.450Z,170.98
2018-03-07T10:41:30.929Z,162.02
2018-03-07T10:44:02.126Z,164.62
2018-03-07T10:46:30.645Z,167.50
2018-03-07T10:49:00.087Z,172.65
2018-03-07T10:51:42.889Z,175.73
2018-03-07T10:54:21.178Z,171.15
2018-03-07T10:56:52.432Z,136.90
2018-03-07T10:59:29.947Z,136.75
2018-03-07T11:02:04.064Z,156.73
2018-03-07T11:04:40.971Z,148.32
2018-03-07T11:07:09.926Z,141.98
2018-03-07T11:09:38.396Z,121.78
2018-03-07T11:12:11.840Z,104.72
2018-03-07T11:14:41.837Z,126.70
2018-03-07T11:17:11.019Z,112.53
2018-03-07T11:19:42.481Z,105.40
2018-03-07T11:22:11.604Z,98.20
2018-03-07T11:24:41.248Z,111.30
2018-03-07T11:27:10.277Z,99.50
2018-03-07T11:29:39.051Z,103.25
2018-03-07T11:32:07.636Z,83.90
2018-03-07T11:34:36.288Z,95.78
2018-03-07T11:37:04.729Z,83.50
2018-03-07T11:39:33.290Z,87.55
2018-03-07T11:42:01.870Z,83.20
2018-03-07T11:44:30.455Z,87.78
2018-03-07T11:46:58.939Z,86.85
2018-03-07T11:49:27.624Z,77.57
2018-03-07T11:51:56.102Z,71.07
2018-03-07T11:54:24.554Z,71.90
2018-03-07T11:56:53.136Z,70.87
2018-03-07T11:59:21.619Z,80.97
2018-03-07T12:01:51.359Z,76.72
2018-03-07T12:04:20.009Z,70.35
2018-03-07T12:06:50.007Z,69.00
2018-03-07T12:09:19.211Z,66.20
2018-03-07T12:11:48.213Z,67.95
2018-03-07T12:14:19.002Z,71.40
2018-03-07T12:16:49.811Z,68.82
2018-03-07T12:19:17.996Z,66.37
2018-03-07T12:21:46.298Z,69.53
2018-03-07T12:24:15.650Z,61.75
2018-03-07T12:26:44.392Z,66.12
2018-03-07T12:29:13.758Z,58.63
2018-03-07T12:31:43.047Z,67.50
2018-03-07T12:34:12.357Z,61.13
2018-03-07T12:36:41.220Z,76.82
2018-03-07T12:39:10.019Z,87.80
2018-03-07T12:41:38.600Z,84.05
2018-03-07T12:44:07.208Z,101.90
2018-03-07T12:46:37.708Z,96.07
2018-03-07T12:49:06.598Z,89.97
2018-03-07T12:51:35.184Z,101.95
2018-03-07T12:54:04.216Z,99.85
2018-03-07T12:56:33.011Z,111.10
2018-03-07T12:59:02.265Z,107.72
2018-03-07T13:01:30.796Z,111.55
2018-03-07T13:03:59.390Z,111.62
2018-03-07T13:06:30.607Z,104.28
2018-03-07T13:09:01.752Z,109.35
2018-03-07T13:11:31.548Z,105.30
2018-03-07T13:14:01.261Z,104.05
2018-03-07T13:16:31.714Z,102.93
2018-03-07T13:19:00.657Z,100.60
2018-03-07T13:21:29.589Z,88.93
2018-03-07T13:24:01.376Z,87.07
2018-03-07T13:26:29.919Z,89.50
2018-03-07T13:28:58.437Z,94.40
2018-03-07T13:31:28.286Z,84.37
2018-03-07T13:33:57.586Z,80.55
2018-03-07T13:36:26.071Z,86.93
2018-03-07T13:38:55.430Z,77.43
2018-03-07T13:41:24.054Z,85.53
2018-03-07T13:43:52.694Z,69.93
2018-03-07T13:46:22.194Z,71.97
2018-03-07T13:48:50.687Z,75.95
2018-03-07T13:51:19.170Z,73.07
2018-03-07T13:53:47.819Z,74.05
2018-03-07T13:56:16.746Z,65.05
2018-03-07T13:59:02.646Z,66.57
2018-03-07T14:01:32.993Z,64.32
2018-03-07T14:04:02.444Z,63.70
2018-03-07T14:06:31.012Z,67.00
2018-03-07T14:09:03.491Z,68.05
2018-03-07T14:11:33.138Z,66.22
2018-03-07T14:14:02.607Z,73.35
2018-03-07T14:16:32.668Z,74.10
2018-03-07T14:19:06.545Z,81.00
2018-03-07T14:21:37.232Z,78.18
2018-03-07T14:24:06.914Z,90.40
2018-03-07T14:26:35.499Z,86.75
2018-03-07T14:29:04.024Z,83.82
2018-03-07T14:31:34.749Z,81.40
2018-03-07T14:34:03.317Z,85.43
2018-03-07T14:36:31.982Z,79.30
2018-03-07T14:39:01.608Z,77.75
2018-03-07T14:41:30.096Z,86.47
2018-03-07T14:43:59.220Z,77.68
2018-03-07T14:46:27.817Z,70.53
2018-03-07T14:49:11.621Z,80.78
2018-03-07T14:51:45.226Z,75.07
2018-03-07T14:54:13.813Z,87.37
2018-03-07T14:56:44.019Z,72.05
2018-03-07T14:59:13.515Z,74.35
2018-03-07T15:01:42.022Z,70.05
2018-03-07T15:04:11.059Z,72.97
2018-03-07T15:06:39.863Z,78.75
2018-03-07T15:09:15.642Z,78.15
2018-03-07T15:11:47.408Z,67.45
2018-03-07T15:14:16.360Z,82.80
2018-03-07T15:17:02.923Z,70.18
2018-03-07T15:19:32.374Z,70.95
2018-03-07T15:22:00.875Z,65.50
2018-03-07T15:24:29.872Z,62.67
2018-03-07T15:26:59.992Z,66.40
2018-03-07T15:29:28.424Z,63.08
2018-03-07T15:31:56.956Z,61.53
2018-03-07T15:34:25.414Z,64.35
2018-03-07T15:36:54.020Z,65.78
2018-03-07T15:39:23.400Z,60.63
2018-03-07T15:41:52.030Z,64.47
2018-03-07T15:44:24.934Z,80.05
2018-03-07T15:46:53.804Z,66.85
2018-03-07T15:49:22.674Z,61.63
2018-03-07T15:51:52.236Z,75.35
2018-03-07T15:54:20.669Z,66.70
2018-03-07T15:56:49.277Z,74.90
2018-03-07T15:59:18.040Z,77.12
2018-03-07T16:01:46.758Z,68.93
2018-03-07T16:04:15.433Z,79.90
2018-03-07T16:06:43.999Z,88.37
2018-03-07T16:09:12.858Z,87.53
2018-03-07T16:11:41.671Z,94.87
2018-03-07T16:14:12.637Z,89.32
2018-03-07T16:16:43.989Z,100.97
2018-03-07T16:19:17.274Z,91.93
2018-03-07T16:21:46.311Z,91.75
2018-03-07T16:24:17.494Z,92.03
2018-03-07T16:26:50.448Z,90.05
2018-03-07T16:29:19.100Z,98.30
2018-03-07T16:31:47.638Z,92.22
2018-03-07T16:34:19.148Z,101.62
2018-03-07T16:36:54.271Z,91.00
2018-03-07T16:39:36.811Z,91.87
2018-03-07T16:42:15.301Z,104.07
2018-03-07T16:44:44.734Z,94.72
2018-03-07T16:47:13.675Z,107.45
2018-03-07T16:49:43.744Z,101.85
2018-03-07T16:52:12.496Z,93.05
2018-03-07T16:54:41.142Z,103.95
2018-03-07T16:57:22.380Z,91.78
2018-03-07T16:59:55.170Z,93.75
2018-03-07T17:02:25.163Z,97.18
2018-03-07T17:04:56.356Z,94.13
2018-03-07T17:07:26.723Z,91.45
2018-03-07T17:09:57.689Z,97.28
2018-03-07T17:12:26.234Z,91.93
2018-03-07T17:14:54.686Z,96.93
2018-03-07T17:17:24.066Z,101.50
2018-03-07T17:20:02.974Z,92.97
2018-03-07T17:22:32.449Z,109.50
2018-03-07T17:25:01.635Z,97.05
2018-03-07T17:27:31.133Z,109.40
2018-03-07T17:30:00.461Z,106.53
2018-03-07T17:32:31.382Z,102.20
2018-03-07T17:34:59.917Z,96.85
2018-03-07T17:37:35.064Z,92.20
2018-03-07T17:40:07.825Z,103.55
2018-03-07T17:42:37.785Z,96.70
2018-03-07T17:45:10.424Z,95.25
2018-03-07T17:47:39.429Z,98.53
2018-03-07T17:50:08.199Z,91.25
2018-03-07T17:52:36.986Z,87.78
2018-03-07T17:55:06.026Z,94.15
2018-03-07T17:57:34.505Z,109.47
2018-03-07T18:00:03.002Z,89.62
2018-03-07T18:02:32.338Z,87.93
2018-03-07T18:05:00.765Z,101.18
2018-03-07T18:07:29.245Z,99.82
2018-03-07T18:09:58.488Z,97.68
2018-03-07T18:12:27.746Z,92.25
2018-03-07T18:14:56.426Z,93.03
2018-03-07T18:17:24.917Z,102.03
2018-03-07T18:19:53.445Z,91.22
2018-03-07T18:22:25.387Z,97.03
2018-03-07T18:24:54.014Z,98.30
2018-03-07T18:27:22.483Z,101.43
2018-03-07T18:29:51.519Z,95.62
2018-03-07T18:32:20.185Z,88.45
2018-03-07T18:34:48.664Z,83.43
2018-03-07T18:37:17.884Z,98.65
2018-03-07T18:39:46.851Z,89.85
2018-03-07T18:42:15.484Z,93.05
2018-03-07T18:44:44.000Z,92.22
2018-03-07T18:47:12.731Z,88.03
2018-03-07T18:49:41.201Z,87.78
2018-03-07T18:52:09.731Z,91.45
2018-03-07T18:54:38.331Z,89.20
2018-03-07T18:57:07.820Z,77.60
2018-03-07T18:59:36.543Z,93.53
2018-03-07T19:02:05.004Z,102.10
2018-03-07T19:04:33.477Z,81.93
2018-03-07T19:07:02.059Z,79.97
2018-03-07T19:09:30.527Z,83.85
2018-03-07T19:11:59.117Z,78.80
2018-03-07T19:14:27.834Z,79.22
2018-03-07T19:16:57.259Z,81.22
2018-03-07T19:19:25.910Z,79.57
2018-03-07T19:21:54.478Z,75.70
2018-03-07T19:24:22.891Z,81.37
2018-03-07T19:26:51.337Z,70.25
2018-03-07T19:29:19.920Z,74.50
2018-03-07T19:31:48.400Z,79.20
2018-03-07T19:34:16.909Z,82.40
2018-03-07T19:36:46.545Z,81.55
2018-03-07T19:39:15.083Z,81.40
2018-03-07T19:41:43.591Z,76.93
2018-03-07T19:44:12.360Z,79.15
2018-03-07T19:46:41.060Z,79.18
2018-03-07T19:49:09.910Z,78.43
2018-03-07T19:51:38.534Z,81.75
2018-03-07T19:54:07.627Z,77.70
2018-03-07T19:56:36.294Z,67.32
2018-03-07T19:59:04.779Z,76.10
2018-03-07T20:01:33.210Z,80.55
2018-03-07T20:04:01.787Z,65.45
2018-03-07T20:06:31.256Z,75.15
2018-03-07T20:08:59.728Z,74.72
2018-03-07T20:11:28.191Z,73.50
2018-03-07T20:13:57.454Z,91.07
2018-03-07T20:16:25.904Z,77.28
2018-03-07T20:18:54.354Z,84.00
2018-03-07T20:21:22.940Z,89.37
2018-03-07T20:23:51.474Z,79.10
2018-03-07T20:26:19.993Z,77.47
2018-03-07T20:28:48.783Z,77.75
2018-03-07T20:31:17.481Z,70.12
2018-03-07T20:33:46.279Z,76.90
2018-03-07T20:36:14.846Z,79.85
2018-03-07T20:38:43.386Z,85.47
2018-03-07T20:41:12.117Z,90.53
2018-03-07T20:43:41.649Z,80.95
2018-03-07T20:46:10.437Z,90.80
2018-03-07T20:48:39.211Z,104.43
2018-03-07T20:51:08.007Z,97.45
2018-03-07T20:53:36.687Z,110.80
2018-03-07T20:56:05.192Z,110.93
2018-03-07T20:58:34.020Z,111.97
2018-03-07T21:01:02.513Z,107.85
2018-03-07T21:03:31.186Z,104.40
2018-03-07T21:06:00.234Z,120.10
2018-03-07T21:08:28.773Z,113.47
2018-03-07T21:10:57.336Z,97.07
2018-03-07T21:13:26.643Z,96.45
2018-03-07T21:15:55.258Z,94.00
2018-03-07T21:18:23.830Z,113.00
2018-03-07T21:20:52.434Z,100.38
2018-03-07T21:23:21.520Z,95.22
2018-03-07T21:25:50.093Z,95.53
2018-03-07T21:28:19.797Z,98.45
2018-03-07T21:30:48.310Z,98.85
2018-03-07T21:33:17.171Z,80.97
2018-03-07T21:35:45.870Z,94.72
2018-03-07T21:38:14.429Z,100.53
2018-03-07T21:40:43.141Z,90.12
2018-03-07T21:43:11.817Z,92.10
2018-03-07T21:45:40.639Z,88.87
2018-03-07T21:48:10.451Z,84.28
2018-03-07T21:50:40.850Z,84.55
2018-03-07T21:53:09.644Z,79.45
2018-03-07T21:55:38.817Z,87.15
2018-03-07T21:58:07.587Z,94.37
2018-03-07T22:00:36.142Z,101.85
2018-03-07T22:03:04.589Z,107.45
2018-03-07T22:05:33.071Z,87.32
2018-03-07T22:08:01.516Z,81.28
2018-03-07T22:10:30.007Z,72.05
2018-03-07T22:12:58.680Z,77.32
2018-03-07T22:15:27.158Z,83.80
2018-03-07T22:17:55.645Z,78.80
2018-03-07T22:20:24.325Z,85.97
2018-03-07T22:22:52.809Z,84.15
2018-03-07T22:25:21.256Z,92.05
2018-03-07T22:27:49.769Z,83.43
2018-03-07T22:30:18.457Z,97.22
2018-03-07T22:32:48.066Z,85.62
2018-03-07T22:35:16.747Z,86.03
2018-03-07T22:37:45.296Z,81.00
2018-03-07T22:40:13.919Z,71.87
2018-03-07T22:42:42.634Z,80.20
2018-03-07T22:45:11.482Z,74.07
2018-03-07T22:47:40.181Z,67.12
2018-03-07T22:50:08.833Z,65.07
2018-03-07T22:52:37.376Z,73.37
2018-03-07T22:55:05.929Z,63.08
2018-03-07T22:57:34.712Z,61.35
2018-03-07T23:00:03.392Z,57.35
2018-03-07T23:02:31.880Z,61.58
2018-03-07T23:05:00.987Z,55.80
2018-03-07T23:07:29.448Z,54.25
2018-03-07T23:09:57.902Z,56.40
2018-03-07T23:12:26.622Z,49.47
2018-03-07T23:14:55.308Z,50.65
2018-03-07T23:17:24.009Z,60.78
2018-03-07T23:19:52.554Z,57.08
2018-03-07T23:22:21.065Z,61.88
2018-03-07T23:24:50.459Z,57.78
2018-03-07T23:27:19.098Z,70.85
2018-03-07T23:29:47.591Z,70.00
2018-03-07T23:32:16.151Z,66.93
2018-03-07T23:34:45.717Z,70.65
2018-03-07T23:37:14.344Z,59.95
2018-03-07T23:39:43.142Z,57.60
2018-03-07T23:42:11.761Z,60.05
2018-03-07T23:44:40.540Z,61.63
2018-03-07T23:47:09.703Z,57.22
2018-03-07T23:49:38.959Z,61.47
2018-03-07T23:52:08.257Z,70.25
2018-03-07T23:54:36.736Z,69.72
2018-03-07T23:57:07.083Z,68.05
2018-03-07T23:59:35.751Z,72.62
